sensor_id;sensor_type;location;lat;lon;timestamp;temperature;humidity
5061;DHT22;2549;52.128;21.068;2023-04-06T00:00:11;6.60;68.10
5061;DHT22;2549;52.128;21.068;2023-04-06T00:02:38;6.50;68.20
5061;DHT22;2549;52.128;21.068;2023-04-06T00:05:06;6.50;68.40
5061;DHT22;2549;52.128;21.068;2023-04-06T00:07:33;6.50;68.10
5061;DHT22;2549;52.128;21.068;2023-04-06T00:10:00;6.50;67.80
5061;DHT22;2549;52.128;21.068;2023-04-06T00:12:27;6.50;68.60
5061;DHT22;2549;52.128;21.068;2023-04-06T00:14:54;6.50;68.00
5061;DHT22;2549;52.128;21.068;2023-04-06T00:17:21;6.50;68.30
5061;DHT22;2549;52.128;21.068;2023-04-06T00:19:48;6.50;68.50
5061;DHT22;2549;52.128;21.068;2023-04-06T00:22:15;6.50;68.60
5061;DHT22;2549;52.128;21.068;2023-04-06T00:24:41;6.50;68.70
5061;DHT22;2549;52.128;21.068;2023-04-06T00:27:08;6.50;68.70
5061;DHT22;2549;52.128;21.068;2023-04-06T00:29:35;6.50;69.10
5061;DHT22;2549;52.128;21.068;2023-04-06T00:32:03;6.50;69.10
5061;DHT22;2549;52.128;21.068;2023-04-06T00:34:30;6.50;69.00
5061;DHT22;2549;52.128;21.068;2023-04-06T00:36:57;6.50;68.80
5061;DHT22;2549;52.128;21.068;2023-04-06T00:39:23;6.50;69.20
5061;DHT22;2549;52.128;21.068;2023-04-06T00:41:51;6.50;69.10
5061;DHT22;2549;52.128;21.068;2023-04-06T00:44:19;6.50;69.10
5061;DHT22;2549;52.128;21.068;2023-04-06T00:46:46;6.50;69.10
5061;DHT22;2549;52.128;21.068;2023-04-06T00:49:13;6.50;69.10
5061;DHT22;2549;52.128;21.068;2023-04-06T00:51:40;6.50;69.10
5061;DHT22;2549;52.128;21.068;2023-04-06T00:54:07;6.50;69.20
5061;DHT22;2549;52.128;21.068;2023-04-06T00:56:34;6.50;69.50
5061;DHT22;2549;52.128;21.068;2023-04-06T00:59:02;6.50;69.40
5061;DHT22;2549;52.128;21.068;2023-04-06T01:01:29;6.50;69.30
5061;DHT22;2549;52.128;21.068;2023-04-06T01:03:56;6.50;69.30
5061;DHT22;2549;52.128;21.068;2023-04-06T01:06:22;6.50;69.50
5061;DHT22;2549;52.128;21.068;2023-04-06T01:08:49;6.50;69.40
5061;DHT22;2549;52.128;21.068;2023-04-06T01:11:17;6.50;70.10
5061;DHT22;2549;52.128;21.068;2023-04-06T01:13:44;6.50;69.40
5061;DHT22;2549;52.128;21.068;2023-04-06T01:16:11;6.50;69.50
5061;DHT22;2549;52.128;21.068;2023-04-06T01:18:38;6.50;69.70
5061;DHT22;2549;52.128;21.068;2023-04-06T01:21:05;6.50;69.70
5061;DHT22;2549;52.128;21.068;2023-04-06T01:23:32;6.50;69.80
5061;DHT22;2549;52.128;21.068;2023-04-06T01:25:59;6.50;69.60
5061;DHT22;2549;52.128;21.068;2023-04-06T01:28:25;6.50;69.60
5061;DHT22;2549;52.128;21.068;2023-04-06T01:30:53;6.50;69.60
5061;DHT22;2549;52.128;21.068;2023-04-06T01:33:19;6.50;69.70
5061;DHT22;2549;52.128;21.068;2023-04-06T01:35:46;6.40;69.60
5061;DHT22;2549;52.128;21.068;2023-04-06T01:38:13;6.50;69.60
5061;DHT22;2549;52.128;21.068;2023-04-06T01:40:40;6.50;69.70
5061;DHT22;2549;52.128;21.068;2023-04-06T01:43:07;6.50;69.90
5061;DHT22;2549;52.128;21.068;2023-04-06T01:45:34;6.50;69.80
5061;DHT22;2549;52.128;21.068;2023-04-06T01:48:01;6.50;70.00
5061;DHT22;2549;52.128;21.068;2023-04-06T01:50:27;6.50;70.00
5061;DHT22;2549;52.128;21.068;2023-04-06T01:52:54;6.40;70.00
5061;DHT22;2549;52.128;21.068;2023-04-06T01:55:21;6.40;70.00
5061;DHT22;2549;52.128;21.068;2023-04-06T01:57:48;6.40;70.00
5061;DHT22;2549;52.128;21.068;2023-04-06T02:00:15;6.40;69.70
5061;DHT22;2549;52.128;21.068;2023-04-06T02:02:43;6.40;69.80
5061;DHT22;2549;52.128;21.068;2023-04-06T02:05:10;6.40;69.50
5061;DHT22;2549;52.128;21.068;2023-04-06T02:07:37;6.30;69.70
5061;DHT22;2549;52.128;21.068;2023-04-06T02:10:10;6.30;69.70
5061;DHT22;2549;52.128;21.068;2023-04-06T02:12:37;6.40;69.90
5061;DHT22;2549;52.128;21.068;2023-04-06T02:15:04;6.40;69.90
5061;DHT22;2549;52.128;21.068;2023-04-06T02:17:31;6.40;70.00
5061;DHT22;2549;52.128;21.068;2023-04-06T02:19:58;6.40;70.00
5061;DHT22;2549;52.128;21.068;2023-04-06T02:22:25;6.40;69.80
5061;DHT22;2549;52.128;21.068;2023-04-06T02:24:52;6.40;69.50
5061;DHT22;2549;52.128;21.068;2023-04-06T02:27:18;6.40;69.50
5061;DHT22;2549;52.128;21.068;2023-04-06T02:29:45;6.40;69.90
5061;DHT22;2549;52.128;21.068;2023-04-06T02:32:12;6.40;69.90
5061;DHT22;2549;52.128;21.068;2023-04-06T02:34:39;6.40;69.70
5061;DHT22;2549;52.128;21.068;2023-04-06T02:37:05;6.40;69.70
5061;DHT22;2549;52.128;21.068;2023-04-06T02:39:32;6.40;69.80
5061;DHT22;2549;52.128;21.068;2023-04-06T02:41:59;6.40;69.90
5061;DHT22;2549;52.128;21.068;2023-04-06T02:44:26;6.40;70.10
5061;DHT22;2549;52.128;21.068;2023-04-06T02:46:53;6.30;70.10
5061;DHT22;2549;52.128;21.068;2023-04-06T02:49:20;6.30;70.20
5061;DHT22;2549;52.128;21.068;2023-04-06T02:51:47;6.30;70.30
5061;DHT22;2549;52.128;21.068;2023-04-06T02:54:13;6.30;70.40
5061;DHT22;2549;52.128;21.068;2023-04-06T02:56:40;6.30;70.50
5061;DHT22;2549;52.128;21.068;2023-04-06T02:59:07;6.30;70.60
5061;DHT22;2549;52.128;21.068;2023-04-06T03:01:34;6.30;70.70
5061;DHT22;2549;52.128;21.068;2023-04-06T03:04:02;6.30;70.90
5061;DHT22;2549;52.128;21.068;2023-04-06T03:06:28;6.30;71.00
5061;DHT22;2549;52.128;21.068;2023-04-06T03:08:55;6.30;71.30
5061;DHT22;2549;52.128;21.068;2023-04-06T03:11:22;6.20;71.40
5061;DHT22;2549;52.128;21.068;2023-04-06T03:13:49;6.30;71.60
5061;DHT22;2549;52.128;21.068;2023-04-06T03:16:16;6.30;71.60
5061;DHT22;2549;52.128;21.068;2023-04-06T03:18:42;6.30;71.70
5061;DHT22;2549;52.128;21.068;2023-04-06T03:21:11;6.30;71.90
5061;DHT22;2549;52.128;21.068;2023-04-06T03:23:38;6.20;72.10
5061;DHT22;2549;52.128;21.068;2023-04-06T03:26:04;6.20;72.00
5061;DHT22;2549;52.128;21.068;2023-04-06T03:28:31;6.20;72.20
5061;DHT22;2549;52.128;21.068;2023-04-06T03:30:58;6.20;72.50
5061;DHT22;2549;52.128;21.068;2023-04-06T03:33:26;6.20;73.30
5061;DHT22;2549;52.128;21.068;2023-04-06T03:35:55;6.10;72.60
5061;DHT22;2549;52.128;21.068;2023-04-06T03:38:22;6.10;72.80
5061;DHT22;2549;52.128;21.068;2023-04-06T03:40:49;6.10;73.00
5061;DHT22;2549;52.128;21.068;2023-04-06T03:43:16;6.10;73.20
5061;DHT22;2549;52.128;21.068;2023-04-06T03:45:43;6.10;73.20
5061;DHT22;2549;52.128;21.068;2023-04-06T03:48:10;6.00;73.40
5061;DHT22;2549;52.128;21.068;2023-04-06T03:50:37;6.00;73.60
5061;DHT22;2549;52.128;21.068;2023-04-06T03:53:03;6.00;73.40
5061;DHT22;2549;52.128;21.068;2023-04-06T03:55:30;6.00;73.60
5061;DHT22;2549;52.128;21.068;2023-04-06T03:57:57;6.00;74.00
5061;DHT22;2549;52.128;21.068;2023-04-06T04:00:24;5.90;74.00
5061;DHT22;2549;52.128;21.068;2023-04-06T04:02:51;5.90;74.30
5061;DHT22;2549;52.128;21.068;2023-04-06T04:05:18;5.90;74.80
5061;DHT22;2549;52.128;21.068;2023-04-06T04:07:45;5.90;74.80
5061;DHT22;2549;52.128;21.068;2023-04-06T04:10:12;5.90;75.60
5061;DHT22;2549;52.128;21.068;2023-04-06T04:12:38;5.90;75.00
5061;DHT22;2549;52.128;21.068;2023-04-06T04:15:05;5.80;75.10
5061;DHT22;2549;52.128;21.068;2023-04-06T04:17:32;5.80;75.20
5061;DHT22;2549;52.128;21.068;2023-04-06T04:19:59;5.80;75.40
5061;DHT22;2549;52.128;21.068;2023-04-06T04:22:26;5.80;75.40
5061;DHT22;2549;52.128;21.068;2023-04-06T04:24:54;5.80;75.40
5061;DHT22;2549;52.128;21.068;2023-04-06T04:27:21;5.80;75.30
5061;DHT22;2549;52.128;21.068;2023-04-06T04:29:48;5.70;75.40
5061;DHT22;2549;52.128;21.068;2023-04-06T04:32:16;5.70;75.40
5061;DHT22;2549;52.128;21.068;2023-04-06T04:34:43;5.60;75.30
5061;DHT22;2549;52.128;21.068;2023-04-06T04:37:10;5.70;75.50
5061;DHT22;2549;52.128;21.068;2023-04-06T04:39:37;5.70;75.50
5061;DHT22;2549;52.128;21.068;2023-04-06T04:42:04;5.70;75.70
5061;DHT22;2549;52.128;21.068;2023-04-06T04:44:30;5.70;75.50
5061;DHT22;2549;52.128;21.068;2023-04-06T04:46:57;5.70;75.60
5061;DHT22;2549;52.128;21.068;2023-04-06T04:49:24;5.70;75.30
5061;DHT22;2549;52.128;21.068;2023-04-06T04:51:51;5.70;75.20
5061;DHT22;2549;52.128;21.068;2023-04-06T04:54:19;5.80;75.40
5061;DHT22;2549;52.128;21.068;2023-04-06T04:56:46;5.80;75.00
5061;DHT22;2549;52.128;21.068;2023-04-06T04:59:12;5.90;74.90
5061;DHT22;2549;52.128;21.068;2023-04-06T05:01:39;5.90;74.70
5061;DHT22;2549;52.128;21.068;2023-04-06T05:04:21;5.90;74.60
5061;DHT22;2549;52.128;21.068;2023-04-06T05:06:48;5.90;74.00
5061;DHT22;2549;52.128;21.068;2023-04-06T05:09:15;5.80;74.20
5061;DHT22;2549;52.128;21.068;2023-04-06T05:11:42;5.90;74.00
5061;DHT22;2549;52.128;21.068;2023-04-06T05:14:09;5.90;74.20
5061;DHT22;2549;52.128;21.068;2023-04-06T05:16:36;5.90;74.00
5061;DHT22;2549;52.128;21.068;2023-04-06T05:19:03;5.90;73.90
5061;DHT22;2549;52.128;21.068;2023-04-06T05:21:30;5.90;74.00
5061;DHT22;2549;52.128;21.068;2023-04-06T05:23:58;5.90;73.90
5061;DHT22;2549;52.128;21.068;2023-04-06T05:26:25;6.00;74.20
5061;DHT22;2549;52.128;21.068;2023-04-06T05:28:52;6.10;74.20
5061;DHT22;2549;52.128;21.068;2023-04-06T05:31:18;6.10;74.00
5061;DHT22;2549;52.128;21.068;2023-04-06T05:33:46;6.10;73.70
5061;DHT22;2549;52.128;21.068;2023-04-06T05:36:12;6.10;73.80
5061;DHT22;2549;52.128;21.068;2023-04-06T05:38:40;6.20;74.00
5061;DHT22;2549;52.128;21.068;2023-04-06T05:41:07;6.20;74.10
5061;DHT22;2549;52.128;21.068;2023-04-06T05:43:34;6.20;74.20
5061;DHT22;2549;52.128;21.068;2023-04-06T05:46:01;6.30;74.30
5061;DHT22;2549;52.128;21.068;2023-04-06T05:48:28;6.30;74.40
5061;DHT22;2549;52.128;21.068;2023-04-06T05:50:55;6.30;74.90
5061;DHT22;2549;52.128;21.068;2023-04-06T05:53:23;6.40;74.30
5061;DHT22;2549;52.128;21.068;2023-04-06T05:55:51;6.30;74.30
5061;DHT22;2549;52.128;21.068;2023-04-06T05:58:18;6.30;74.50
5061;DHT22;2549;52.128;21.068;2023-04-06T06:00:45;6.40;74.70
5061;DHT22;2549;52.128;21.068;2023-04-06T06:03:12;6.40;74.70
5061;DHT22;2549;52.128;21.068;2023-04-06T06:05:39;6.40;74.30
5061;DHT22;2549;52.128;21.068;2023-04-06T06:08:06;6.40;74.30
5061;DHT22;2549;52.128;21.068;2023-04-06T06:10:33;6.40;74.70
5061;DHT22;2549;52.128;21.068;2023-04-06T06:13:00;6.40;75.50
5061;DHT22;2549;52.128;21.068;2023-04-06T06:15:27;6.50;74.60
5061;DHT22;2549;52.128;21.068;2023-04-06T06:17:54;6.50;74.20
5061;DHT22;2549;52.128;21.068;2023-04-06T06:20:21;6.50;74.30
5061;DHT22;2549;52.128;21.068;2023-04-06T06:22:47;6.50;74.30
5061;DHT22;2549;52.128;21.068;2023-04-06T06:25:14;6.60;74.30
5061;DHT22;2549;52.128;21.068;2023-04-06T06:27:42;6.60;74.30
5061;DHT22;2549;52.128;21.068;2023-04-06T06:30:09;6.60;74.30
5061;DHT22;2549;52.128;21.068;2023-04-06T06:32:36;6.60;74.50
5061;DHT22;2549;52.128;21.068;2023-04-06T06:35:03;6.70;74.40
5061;DHT22;2549;52.128;21.068;2023-04-06T06:37:30;6.70;74.00
5061;DHT22;2549;52.128;21.068;2023-04-06T06:39:57;6.70;74.20
5061;DHT22;2549;52.128;21.068;2023-04-06T06:42:24;6.70;74.30
5061;DHT22;2549;52.128;21.068;2023-04-06T06:44:51;6.70;74.70
5061;DHT22;2549;52.128;21.068;2023-04-06T06:47:18;6.70;74.60
5061;DHT22;2549;52.128;21.068;2023-04-06T06:49:45;6.70;75.00
5061;DHT22;2549;52.128;21.068;2023-04-06T06:52:12;6.80;75.40
5061;DHT22;2549;52.128;21.068;2023-04-06T06:54:38;6.90;75.50
5061;DHT22;2549;52.128;21.068;2023-04-06T06:57:05;6.90;75.80
5061;DHT22;2549;52.128;21.068;2023-04-06T06:59:32;6.90;75.80
5061;DHT22;2549;52.128;21.068;2023-04-06T07:01:59;6.90;75.90
5061;DHT22;2549;52.128;21.068;2023-04-06T07:04:26;6.90;75.90
5061;DHT22;2549;52.128;21.068;2023-04-06T07:06:53;6.80;75.90
5061;DHT22;2549;52.128;21.068;2023-04-06T07:09:19;6.80;76.50
5061;DHT22;2549;52.128;21.068;2023-04-06T07:11:46;6.80;77.10
5061;DHT22;2549;52.128;21.068;2023-04-06T07:14:15;6.80;77.00
5061;DHT22;2549;52.128;21.068;2023-04-06T07:16:42;6.80;77.10
5061;DHT22;2549;52.128;21.068;2023-04-06T07:19:11;6.80;77.10
5061;DHT22;2549;52.128;21.068;2023-04-06T07:21:38;6.80;77.00
5061;DHT22;2549;52.128;21.068;2023-04-06T07:24:05;6.80;76.90
5061;DHT22;2549;52.128;21.068;2023-04-06T07:26:32;6.80;77.40
5061;DHT22;2549;52.128;21.068;2023-04-06T07:28:59;6.80;77.60
5061;DHT22;2549;52.128;21.068;2023-04-06T07:31:26;6.90;77.10
5061;DHT22;2549;52.128;21.068;2023-04-06T07:33:53;7.00;77.10
5061;DHT22;2549;52.128;21.068;2023-04-06T07:36:20;7.00;77.40
5061;DHT22;2549;52.128;21.068;2023-04-06T07:38:47;7.00;77.20
5061;DHT22;2549;52.128;21.068;2023-04-06T07:41:14;7.00;76.80
5061;DHT22;2549;52.128;21.068;2023-04-06T07:43:41;7.00;76.90
5061;DHT22;2549;52.128;21.068;2023-04-06T07:46:08;7.00;77.00
5061;DHT22;2549;52.128;21.068;2023-04-06T07:48:34;7.00;77.50
5061;DHT22;2549;52.128;21.068;2023-04-06T07:51:04;7.00;77.60
5061;DHT22;2549;52.128;21.068;2023-04-06T07:53:32;6.90;78.60
5061;DHT22;2549;52.128;21.068;2023-04-06T07:55:59;6.90;78.30
5061;DHT22;2549;52.128;21.068;2023-04-06T07:58:26;6.90;78.70
5061;DHT22;2549;52.128;21.068;2023-04-06T08:00:53;6.90;78.70
5061;DHT22;2549;52.128;21.068;2023-04-06T08:03:21;6.90;79.30
5061;DHT22;2549;52.128;21.068;2023-04-06T08:05:52;7.00;79.00
5061;DHT22;2549;52.128;21.068;2023-04-06T08:08:19;7.00;79.50
5061;DHT22;2549;52.128;21.068;2023-04-06T08:10:48;7.00;80.00
5061;DHT22;2549;52.128;21.068;2023-04-06T08:13:15;7.00;80.60
5061;DHT22;2549;52.128;21.068;2023-04-06T08:15:45;7.00;81.10
5061;DHT22;2549;52.128;21.068;2023-04-06T08:18:12;7.00;81.00
5061;DHT22;2549;52.128;21.068;2023-04-06T08:20:40;7.00;81.50
5061;DHT22;2549;52.128;21.068;2023-04-06T08:23:07;7.00;81.70
5061;DHT22;2549;52.128;21.068;2023-04-06T08:25:36;7.10;81.60
5061;DHT22;2549;52.128;21.068;2023-04-06T08:28:04;7.10;81.20
5061;DHT22;2549;52.128;21.068;2023-04-06T08:30:31;7.10;81.10
5061;DHT22;2549;52.128;21.068;2023-04-06T08:32:58;7.20;81.20
5061;DHT22;2549;52.128;21.068;2023-04-06T08:35:26;7.20;81.30
5061;DHT22;2549;52.128;21.068;2023-04-06T08:37:53;7.20;81.90
5061;DHT22;2549;52.128;21.068;2023-04-06T08:40:20;7.20;81.50
5061;DHT22;2549;52.128;21.068;2023-04-06T08:42:51;7.20;81.50
5061;DHT22;2549;52.128;21.068;2023-04-06T08:45:20;7.30;82.00
5061;DHT22;2549;52.128;21.068;2023-04-06T08:47:51;7.20;82.00
5061;DHT22;2549;52.128;21.068;2023-04-06T08:50:21;7.20;82.30
5061;DHT22;2549;52.128;21.068;2023-04-06T08:52:48;7.20;82.30
5061;DHT22;2549;52.128;21.068;2023-04-06T08:55:16;7.10;82.60
5061;DHT22;2549;52.128;21.068;2023-04-06T08:57:43;7.00;82.80
5061;DHT22;2549;52.128;21.068;2023-04-06T09:00:11;7.00;83.60
5061;DHT22;2549;52.128;21.068;2023-04-06T09:02:43;7.00;83.40
5061;DHT22;2549;52.128;21.068;2023-04-06T09:05:10;6.80;83.80
5061;DHT22;2549;52.128;21.068;2023-04-06T09:07:37;6.80;84.60
5061;DHT22;2549;52.128;21.068;2023-04-06T09:10:05;6.80;85.40
5061;DHT22;2549;52.128;21.068;2023-04-06T09:12:33;6.80;85.10
5061;DHT22;2549;52.128;21.068;2023-04-06T09:15:01;6.80;84.90
5061;DHT22;2549;52.128;21.068;2023-04-06T09:17:30;6.70;85.00
5061;DHT22;2549;52.128;21.068;2023-04-06T09:20:02;6.60;85.90
5061;DHT22;2549;52.128;21.068;2023-04-06T09:22:39;6.60;86.70
5061;DHT22;2549;52.128;21.068;2023-04-06T09:25:07;6.70;87.50
5061;DHT22;2549;52.128;21.068;2023-04-06T09:27:36;6.70;86.90
5061;DHT22;2549;52.128;21.068;2023-04-06T09:30:10;6.70;87.10
5061;DHT22;2549;52.128;21.068;2023-04-06T09:32:49;6.60;87.30
5061;DHT22;2549;52.128;21.068;2023-04-06T09:35:18;6.60;87.70
5061;DHT22;2549;52.128;21.068;2023-04-06T09:37:50;6.50;87.60
5061;DHT22;2549;52.128;21.068;2023-04-06T09:40:17;6.50;88.20
5061;DHT22;2549;52.128;21.068;2023-04-06T09:42:46;6.50;89.20
5061;DHT22;2549;52.128;21.068;2023-04-06T09:45:14;6.50;89.50
5061;DHT22;2549;52.128;21.068;2023-04-06T09:47:45;6.50;90.20
5061;DHT22;2549;52.128;21.068;2023-04-06T09:50:14;6.50;90.60
5061;DHT22;2549;52.128;21.068;2023-04-06T09:52:50;6.40;90.90
5061;DHT22;2549;52.128;21.068;2023-04-06T09:55:28;6.30;91.10
5061;DHT22;2549;52.128;21.068;2023-04-06T09:58:07;6.30;91.60
5061;DHT22;2549;52.128;21.068;2023-04-06T10:00:54;6.20;91.90
5061;DHT22;2549;52.128;21.068;2023-04-06T10:06:05;6.10;92.60
5061;DHT22;2549;52.128;21.068;2023-04-06T10:08:39;6.20;92.90
5061;DHT22;2549;52.128;21.068;2023-04-06T10:11:09;6.30;93.00
5061;DHT22;2549;52.128;21.068;2023-04-06T10:13:37;6.30;92.90
5061;DHT22;2549;52.128;21.068;2023-04-06T10:16:05;6.40;92.90
5061;DHT22;2549;52.128;21.068;2023-04-06T10:18:33;6.30;92.90
5061;DHT22;2549;52.128;21.068;2023-04-06T10:21:01;6.30;93.10
5061;DHT22;2549;52.128;21.068;2023-04-06T10:23:35;6.30;93.30
5061;DHT22;2549;52.128;21.068;2023-04-06T10:26:03;6.20;93.60
5061;DHT22;2549;52.128;21.068;2023-04-06T10:28:32;6.10;93.90
5061;DHT22;2549;52.128;21.068;2023-04-06T10:31:01;6.00;94.20
5061;DHT22;2549;52.128;21.068;2023-04-06T10:33:28;6.00;94.60
5061;DHT22;2549;52.128;21.068;2023-04-06T10:35:56;6.00;94.70
5061;DHT22;2549;52.128;21.068;2023-04-06T10:38:37;6.00;95.00
5061;DHT22;2549;52.128;21.068;2023-04-06T10:41:09;6.10;95.30
5061;DHT22;2549;52.128;21.068;2023-04-06T10:43:38;6.10;95.60
5061;DHT22;2549;52.128;21.068;2023-04-06T10:46:06;6.10;95.80
5061;DHT22;2549;52.128;21.068;2023-04-06T10:48:38;6.10;96.00
5061;DHT22;2549;52.128;21.068;2023-04-06T10:51:11;6.00;95.90
5061;DHT22;2549;52.128;21.068;2023-04-06T10:53:47;6.00;96.00
5061;DHT22;2549;52.128;21.068;2023-04-06T10:56:16;6.00;96.40
5061;DHT22;2549;52.128;21.068;2023-04-06T10:58:47;6.00;96.50
5061;DHT22;2549;52.128;21.068;2023-04-06T11:01:19;5.90;96.40
5061;DHT22;2549;52.128;21.068;2023-04-06T11:03:51;6.00;96.70
5061;DHT22;2549;52.128;21.068;2023-04-06T11:08:46;6.10;96.60
5061;DHT22;2549;52.128;21.068;2023-04-06T11:11:15;6.10;96.60
5061;DHT22;2549;52.128;21.068;2023-04-06T11:13:46;6.10;96.80
5061;DHT22;2549;52.128;21.068;2023-04-06T11:21:42;6.10;96.90
5061;DHT22;2549;52.128;21.068;2023-04-06T11:24:20;6.10;97.10
5061;DHT22;2549;52.128;21.068;2023-04-06T11:26:51;6.10;97.20
5061;DHT22;2549;52.128;21.068;2023-04-06T11:29:20;6.10;97.00
5061;DHT22;2549;52.128;21.068;2023-04-06T11:31:49;6.10;97.30
5061;DHT22;2549;52.128;21.068;2023-04-06T11:34:18;6.10;97.10
5061;DHT22;2549;52.128;21.068;2023-04-06T11:36:46;6.10;97.10
5061;DHT22;2549;52.128;21.068;2023-04-06T11:39:19;6.20;97.20
5061;DHT22;2549;52.128;21.068;2023-04-06T11:41:49;6.20;97.30
5061;DHT22;2549;52.128;21.068;2023-04-06T11:44:39;6.30;97.20
5061;DHT22;2549;52.128;21.068;2023-04-06T11:47:09;6.30;97.10
5061;DHT22;2549;52.128;21.068;2023-04-06T11:49:38;6.30;97.20
5061;DHT22;2549;52.128;21.068;2023-04-06T11:52:18;6.30;97.10
5061;DHT22;2549;52.128;21.068;2023-04-06T11:54:47;6.30;96.70
5061;DHT22;2549;52.128;21.068;2023-04-06T11:57:14;6.30;97.10
5061;DHT22;2549;52.128;21.068;2023-04-06T11:59:41;6.30;97.00
5061;DHT22;2549;52.128;21.068;2023-04-06T12:02:08;6.30;97.30
5061;DHT22;2549;52.128;21.068;2023-04-06T12:04:35;6.30;96.90
5061;DHT22;2549;52.128;21.068;2023-04-06T12:07:03;6.30;96.80
5061;DHT22;2549;52.128;21.068;2023-04-06T12:09:31;6.30;96.70
5061;DHT22;2549;52.128;21.068;2023-04-06T12:11:58;6.20;96.80
5061;DHT22;2549;52.128;21.068;2023-04-06T12:14:24;6.20;96.70
5061;DHT22;2549;52.128;21.068;2023-04-06T12:16:51;6.20;97.00
5061;DHT22;2549;52.128;21.068;2023-04-06T12:19:18;6.20;96.90
5061;DHT22;2549;52.128;21.068;2023-04-06T12:21:45;6.30;97.00
5061;DHT22;2549;52.128;21.068;2023-04-06T12:24:12;6.30;97.00
5061;DHT22;2549;52.128;21.068;2023-04-06T12:26:39;6.40;96.90
5061;DHT22;2549;52.128;21.068;2023-04-06T12:29:07;6.40;96.90
5061;DHT22;2549;52.128;21.068;2023-04-06T12:31:35;6.50;97.30
5061;DHT22;2549;52.128;21.068;2023-04-06T12:34:03;6.60;96.70
5061;DHT22;2549;52.128;21.068;2023-04-06T12:36:30;6.70;96.50
5061;DHT22;2549;52.128;21.068;2023-04-06T12:38:58;6.60;96.50
5061;DHT22;2549;52.128;21.068;2023-04-06T12:41:27;6.60;96.60
5061;DHT22;2549;52.128;21.068;2023-04-06T12:43:53;6.60;96.60
5061;DHT22;2549;52.128;21.068;2023-04-06T12:46:21;6.60;96.70
5061;DHT22;2549;52.128;21.068;2023-04-06T12:48:48;6.60;96.70
5061;DHT22;2549;52.128;21.068;2023-04-06T12:51:15;6.70;96.90
5061;DHT22;2549;52.128;21.068;2023-04-06T12:53:42;6.70;96.80
5061;DHT22;2549;52.128;21.068;2023-04-06T12:56:14;6.70;97.00
5061;DHT22;2549;52.128;21.068;2023-04-06T12:58:41;6.70;96.90
5061;DHT22;2549;52.128;21.068;2023-04-06T13:01:09;6.70;96.80
5061;DHT22;2549;52.128;21.068;2023-04-06T13:03:36;6.70;97.00
5061;DHT22;2549;52.128;21.068;2023-04-06T13:06:03;6.70;96.80
5061;DHT22;2549;52.128;21.068;2023-04-06T13:08:30;6.70;97.10
5061;DHT22;2549;52.128;21.068;2023-04-06T13:10:57;6.70;97.00
5061;DHT22;2549;52.128;21.068;2023-04-06T13:13:25;6.60;97.20
5061;DHT22;2549;52.128;21.068;2023-04-06T13:15:54;6.60;97.50
5061;DHT22;2549;52.128;21.068;2023-04-06T13:18:22;6.50;97.60
5061;DHT22;2549;52.128;21.068;2023-04-06T13:20:49;6.50;97.80
5061;DHT22;2549;52.128;21.068;2023-04-06T13:23:16;6.50;98.00
5061;DHT22;2549;52.128;21.068;2023-04-06T13:25:43;6.40;98.50
5061;DHT22;2549;52.128;21.068;2023-04-06T13:28:10;6.40;98.60
5061;DHT22;2549;52.128;21.068;2023-04-06T13:30:37;6.40;98.70
5061;DHT22;2549;52.128;21.068;2023-04-06T13:33:04;6.50;99.00
5061;DHT22;2549;52.128;21.068;2023-04-06T13:35:32;6.50;99.10
5061;DHT22;2549;52.128;21.068;2023-04-06T13:37:59;6.50;99.10
5061;DHT22;2549;52.128;21.068;2023-04-06T13:40:26;6.40;98.80
5061;DHT22;2549;52.128;21.068;2023-04-06T13:42:53;6.40;99.20
5061;DHT22;2549;52.128;21.068;2023-04-06T13:45:20;6.40;99.30
5061;DHT22;2549;52.128;21.068;2023-04-06T13:47:47;6.50;99.50
5061;DHT22;2549;52.128;21.068;2023-04-06T13:50:13;6.60;99.60
5061;DHT22;2549;52.128;21.068;2023-04-06T13:52:40;6.60;99.70
5061;DHT22;2549;52.128;21.068;2023-04-06T13:55:08;6.60;99.80
5061;DHT22;2549;52.128;21.068;2023-04-06T13:57:35;6.60;99.80
5061;DHT22;2549;52.128;21.068;2023-04-06T14:00:03;6.60;99.60
5061;DHT22;2549;52.128;21.068;2023-04-06T14:02:33;6.60;99.80
5061;DHT22;2549;52.128;21.068;2023-04-06T14:05:00;6.50;99.80
5061;DHT22;2549;52.128;21.068;2023-04-06T14:07:27;6.50;99.90
5061;DHT22;2549;52.128;21.068;2023-04-06T14:09:54;6.50;99.90
5061;DHT22;2549;52.128;21.068;2023-04-06T14:12:21;6.50;99.90
5061;DHT22;2549;52.128;21.068;2023-04-06T14:14:48;6.40;99.90
5061;DHT22;2549;52.128;21.068;2023-04-06T14:17:14;6.40;99.90
5061;DHT22;2549;52.128;21.068;2023-04-06T14:19:41;6.50;99.90
5061;DHT22;2549;52.128;21.068;2023-04-06T14:22:09;6.50;99.90
5061;DHT22;2549;52.128;21.068;2023-04-06T14:24:36;6.50;99.90
5061;DHT22;2549;52.128;21.068;2023-04-06T14:27:04;6.60;99.90
5061;DHT22;2549;52.128;21.068;2023-04-06T14:29:30;6.60;99.90
5061;DHT22;2549;52.128;21.068;2023-04-06T14:31:57;6.50;99.90
5061;DHT22;2549;52.128;21.068;2023-04-06T14:34:27;6.60;99.90
5061;DHT22;2549;52.128;21.068;2023-04-06T14:36:53;6.60;99.90
5061;DHT22;2549;52.128;21.068;2023-04-06T14:39:21;6.60;99.90
5061;DHT22;2549;52.128;21.068;2023-04-06T14:41:48;6.60;99.90
5061;DHT22;2549;52.128;21.068;2023-04-06T14:44:16;6.60;99.90
5061;DHT22;2549;52.128;21.068;2023-04-06T14:46:43;6.60;99.90
5061;DHT22;2549;52.128;21.068;2023-04-06T14:49:10;6.60;99.90
5061;DHT22;2549;52.128;21.068;2023-04-06T14:51:38;6.60;99.90
5061;DHT22;2549;52.128;21.068;2023-04-06T14:54:05;6.60;99.90
5061;DHT22;2549;52.128;21.068;2023-04-06T14:56:32;6.60;99.90
5061;DHT22;2549;52.128;21.068;2023-04-06T14:58:59;6.60;99.90
5061;DHT22;2549;52.128;21.068;2023-04-06T15:01:28;6.60;99.90
5061;DHT22;2549;52.128;21.068;2023-04-06T15:03:55;6.60;99.90
5061;DHT22;2549;52.128;21.068;2023-04-06T15:06:22;6.60;99.90
5061;DHT22;2549;52.128;21.068;2023-04-06T15:08:49;6.60;99.90
5061;DHT22;2549;52.128;21.068;2023-04-06T15:11:16;6.60;99.90
5061;DHT22;2549;52.128;21.068;2023-04-06T15:13:43;6.60;99.90
5061;DHT22;2549;52.128;21.068;2023-04-06T15:16:10;6.60;99.90
5061;DHT22;2549;52.128;21.068;2023-04-06T15:18:37;6.60;99.90
5061;DHT22;2549;52.128;21.068;2023-04-06T15:21:04;6.60;99.90
5061;DHT22;2549;52.128;21.068;2023-04-06T15:23:31;6.50;99.90
5061;DHT22;2549;52.128;21.068;2023-04-06T15:26:00;6.60;99.90
5061;DHT22;2549;52.128;21.068;2023-04-06T15:28:27;6.60;99.90
5061;DHT22;2549;52.128;21.068;2023-04-06T15:30:55;6.60;99.90
5061;DHT22;2549;52.128;21.068;2023-04-06T15:33:22;6.60;99.90
5061;DHT22;2549;52.128;21.068;2023-04-06T15:35:49;6.60;99.90
5061;DHT22;2549;52.128;21.068;2023-04-06T15:38:16;6.60;99.90
5061;DHT22;2549;52.128;21.068;2023-04-06T15:40:45;6.60;99.90
5061;DHT22;2549;52.128;21.068;2023-04-06T15:43:12;6.60;99.90
5061;DHT22;2549;52.128;21.068;2023-04-06T15:45:40;6.60;99.90
5061;DHT22;2549;52.128;21.068;2023-04-06T15:48:07;6.60;99.90
5061;DHT22;2549;52.128;21.068;2023-04-06T15:50:35;6.70;99.90
5061;DHT22;2549;52.128;21.068;2023-04-06T15:53:02;6.70;99.90
5061;DHT22;2549;52.128;21.068;2023-04-06T15:55:29;6.70;99.90
5061;DHT22;2549;52.128;21.068;2023-04-06T15:57:56;6.70;99.90
5061;DHT22;2549;52.128;21.068;2023-04-06T16:00:22;6.60;99.90
5061;DHT22;2549;52.128;21.068;2023-04-06T16:02:50;6.60;99.90
5061;DHT22;2549;52.128;21.068;2023-04-06T16:05:18;6.60;99.90
5061;DHT22;2549;52.128;21.068;2023-04-06T16:07:44;6.70;99.90
5061;DHT22;2549;52.128;21.068;2023-04-06T16:10:11;6.70;99.90
5061;DHT22;2549;52.128;21.068;2023-04-06T16:12:38;6.70;99.90
5061;DHT22;2549;52.128;21.068;2023-04-06T16:15:08;6.70;99.90